sensor_id;sensor_type;location;lat;lon;timestamp;P1;durP1;ratioP1;P2;durP2;ratioP2
68940;SDS011;55982;51.476;7.552;2023-06-10T00:00:13;10.77;;;8.57;;
68940;SDS011;55982;51.476;7.552;2023-06-10T00:02:40;13.27;;;9.52;;
68940;SDS011;55982;51.476;7.552;2023-06-10T00:05:06;11.48;;;9.40;;
68940;SDS011;55982;51.476;7.552;2023-06-10T00:07:35;11.63;;;9.30;;
68940;SDS011;55982;51.476;7.552;2023-06-10T00:10:07;14.90;;;9.80;;
68940;SDS011;55982;51.476;7.552;2023-06-10T00:12:33;12.60;;;9.48;;
68940;SDS011;55982;51.476;7.552;2023-06-10T00:15:02;13.38;;;9.77;;
68940;SDS011;55982;51.476;7.552;2023-06-10T00:17:29;11.77;;;9.98;;
68940;SDS011;55982;51.476;7.552;2023-06-10T00:19:55;13.35;;;9.98;;
68940;SDS011;55982;51.476;7.552;2023-06-10T00:22:20;15.70;;;10.45;;
68940;SDS011;55982;51.476;7.552;2023-06-10T00:24:47;11.85;;;9.70;;
68940;SDS011;55982;51.476;7.552;2023-06-10T00:27:12;14.73;;;9.93;;
68940;SDS011;55982;51.476;7.552;2023-06-10T00:29:38;12.85;;;9.65;;
68940;SDS011;55982;51.476;7.552;2023-06-10T00:32:04;11.52;;;9.73;;
68940;SDS011;55982;51.476;7.552;2023-06-10T00:34:30;13.82;;;10.30;;
68940;SDS011;55982;51.476;7.552;2023-06-10T00:36:55;12.43;;;10.02;;
68940;SDS011;55982;51.476;7.552;2023-06-10T00:39:21;12.63;;;10.02;;
68940;SDS011;55982;51.476;7.552;2023-06-10T00:41:46;11.57;;;10.07;;
68940;SDS011;55982;51.476;7.552;2023-06-10T00:44:11;13.98;;;10.30;;
68940;SDS011;55982;51.476;7.552;2023-06-10T00:46:37;13.38;;;10.48;;
68940;SDS011;55982;51.476;7.552;2023-06-10T00:49:02;13.70;;;10.65;;
68940;SDS011;55982;51.476;7.552;2023-06-10T00:51:28;13.10;;;10.02;;
68940;SDS011;55982;51.476;7.552;2023-06-10T00:53:54;12.35;;;9.98;;
68940;SDS011;55982;51.476;7.552;2023-06-10T00:56:20;13.68;;;10.57;;
68940;SDS011;55982;51.476;7.552;2023-06-10T00:58:46;14.48;;;11.40;;
68940;SDS011;55982;51.476;7.552;2023-06-10T01:01:12;12.30;;;10.68;;
68940;SDS011;55982;51.476;7.552;2023-06-10T01:03:39;14.50;;;10.98;;
68940;SDS011;55982;51.476;7.552;2023-06-10T01:06:09;14.77;;;10.25;;
68940;SDS011;55982;51.476;7.552;2023-06-10T01:08:45;13.45;;;10.85;;
68940;SDS011;55982;51.476;7.552;2023-06-10T01:11:23;14.00;;;10.82;;
68940;SDS011;55982;51.476;7.552;2023-06-10T01:13:53;16.00;;;11.43;;
68940;SDS011;55982;51.476;7.552;2023-06-10T01:16:21;15.00;;;11.27;;
68940;SDS011;55982;51.476;7.552;2023-06-10T01:18:47;16.25;;;12.43;;
68940;SDS011;55982;51.476;7.552;2023-06-10T01:21:22;14.00;;;11.57;;
68940;SDS011;55982;51.476;7.552;2023-06-10T01:23:54;14.32;;;12.18;;
68940;SDS011;55982;51.476;7.552;2023-06-10T01:26:22;14.15;;;11.77;;
68940;SDS011;55982;51.476;7.552;2023-06-10T01:29:03;14.18;;;11.63;;
68940;SDS011;55982;51.476;7.552;2023-06-10T01:31:48;15.60;;;12.25;;
68940;SDS011;55982;51.476;7.552;2023-06-10T01:34:19;15.57;;;11.95;;
68940;SDS011;55982;51.476;7.552;2023-06-10T01:36:48;19.00;;;12.25;;
68940;SDS011;55982;51.476;7.552;2023-06-10T01:39:16;14.55;;;12.38;;
68940;SDS011;55982;51.476;7.552;2023-06-10T01:41:43;16.63;;;12.68;;
68940;SDS011;55982;51.476;7.552;2023-06-10T01:44:09;17.80;;;12.73;;
68940;SDS011;55982;51.476;7.552;2023-06-10T01:46:35;17.63;;;12.88;;
68940;SDS011;55982;51.476;7.552;2023-06-10T01:49:00;17.65;;;13.48;;
68940;SDS011;55982;51.476;7.552;2023-06-10T01:51:26;18.25;;;12.60;;
68940;SDS011;55982;51.476;7.552;2023-06-10T01:53:51;16.73;;;13.07;;
68940;SDS011;55982;51.476;7.552;2023-06-10T01:56:17;19.80;;;13.57;;
68940;SDS011;55982;51.476;7.552;2023-06-10T01:58:44;15.55;;;12.73;;
68940;SDS011;55982;51.476;7.552;2023-06-10T02:01:10;16.88;;;13.20;;
68940;SDS011;55982;51.476;7.552;2023-06-10T02:03:36;17.38;;;14.15;;
68940;SDS011;55982;51.476;7.552;2023-06-10T02:06:02;23.15;;;13.48;;
68940;SDS011;55982;51.476;7.552;2023-06-10T02:08:27;19.38;;;13.45;;
68940;SDS011;55982;51.476;7.552;2023-06-10T02:10:53;16.40;;;12.93;;
68940;SDS011;55982;51.476;7.552;2023-06-10T02:13:19;16.38;;;12.65;;
68940;SDS011;55982;51.476;7.552;2023-06-10T02:15:44;22.50;;;14.65;;
68940;SDS011;55982;51.476;7.552;2023-06-10T02:18:09;19.75;;;14.00;;
68940;SDS011;55982;51.476;7.552;2023-06-10T02:20:37;18.15;;;13.57;;
68940;SDS011;55982;51.476;7.552;2023-06-10T02:23:03;16.55;;;13.02;;
68940;SDS011;55982;51.476;7.552;2023-06-10T02:25:28;20.70;;;13.85;;
68940;SDS011;55982;51.476;7.552;2023-06-10T02:27:54;19.45;;;13.30;;
68940;SDS011;55982;51.476;7.552;2023-06-10T02:30:19;18.35;;;13.65;;
68940;SDS011;55982;51.476;7.552;2023-06-10T02:32:44;19.58;;;13.95;;
68940;SDS011;55982;51.476;7.552;2023-06-10T02:35:15;18.20;;;13.32;;
68940;SDS011;55982;51.476;7.552;2023-06-10T02:37:42;19.70;;;14.05;;
68940;SDS011;55982;51.476;7.552;2023-06-10T02:40:08;18.92;;;13.98;;
68940;SDS011;55982;51.476;7.552;2023-06-10T02:42:35;18.80;;;13.75;;
68940;SDS011;55982;51.476;7.552;2023-06-10T02:45:00;21.60;;;13.68;;
68940;SDS011;55982;51.476;7.552;2023-06-10T02:47:26;19.85;;;13.75;;
68940;SDS011;55982;51.476;7.552;2023-06-10T02:49:51;19.40;;;14.45;;
68940;SDS011;55982;51.476;7.552;2023-06-10T02:52:17;19.77;;;14.23;;
68940;SDS011;55982;51.476;7.552;2023-06-10T02:54:42;20.02;;;14.23;;
68940;SDS011;55982;51.476;7.552;2023-06-10T02:57:07;20.55;;;15.10;;
68940;SDS011;55982;51.476;7.552;2023-06-10T02:59:33;18.17;;;14.43;;
68940;SDS011;55982;51.476;7.552;2023-06-10T03:01:58;20.90;;;15.02;;
68940;SDS011;55982;51.476;7.552;2023-06-10T03:04:26;21.70;;;15.25;;
68940;SDS011;55982;51.476;7.552;2023-06-10T03:06:54;19.77;;;14.73;;
68940;SDS011;55982;51.476;7.552;2023-06-10T03:09:19;21.25;;;14.98;;
68940;SDS011;55982;51.476;7.552;2023-06-10T03:11:44;24.23;;;16.13;;
68940;SDS011;55982;51.476;7.552;2023-06-10T03:14:10;24.85;;;15.77;;
68940;SDS011;55982;51.476;7.552;2023-06-10T03:16:35;20.45;;;15.95;;
68940;SDS011;55982;51.476;7.552;2023-06-10T03:19:04;19.80;;;15.25;;
68940;SDS011;55982;51.476;7.552;2023-06-10T03:21:30;20.05;;;16.20;;
68940;SDS011;55982;51.476;7.552;2023-06-10T03:23:55;21.10;;;16.15;;
68940;SDS011;55982;51.476;7.552;2023-06-10T03:26:20;23.13;;;15.45;;
68940;SDS011;55982;51.476;7.552;2023-06-10T03:28:46;24.13;;;15.50;;
68940;SDS011;55982;51.476;7.552;2023-06-10T03:31:12;23.17;;;15.85;;
68940;SDS011;55982;51.476;7.552;2023-06-10T03:33:37;20.75;;;13.88;;
68940;SDS011;55982;51.476;7.552;2023-06-10T03:36:04;21.48;;;15.05;;
68940;SDS011;55982;51.476;7.552;2023-06-10T03:38:29;21.50;;;16.48;;
68940;SDS011;55982;51.476;7.552;2023-06-10T03:40:55;20.48;;;15.90;;
68940;SDS011;55982;51.476;7.552;2023-06-10T03:43:20;21.77;;;16.00;;
68940;SDS011;55982;51.476;7.552;2023-06-10T03:45:46;22.95;;;16.30;;
68940;SDS011;55982;51.476;7.552;2023-06-10T03:48:13;24.25;;;16.63;;
68940;SDS011;55982;51.476;7.552;2023-06-10T03:50:38;23.25;;;16.25;;
68940;SDS011;55982;51.476;7.552;2023-06-10T03:53:03;21.35;;;15.63;;
68940;SDS011;55982;51.476;7.552;2023-06-10T03:55:29;25.80;;;16.35;;
68940;SDS011;55982;51.476;7.552;2023-06-10T03:57:56;20.48;;;15.85;;
68940;SDS011;55982;51.476;7.552;2023-06-10T04:00:21;22.80;;;15.60;;
68940;SDS011;55982;51.476;7.552;2023-06-10T04:02:47;24.70;;;17.30;;
68940;SDS011;55982;51.476;7.552;2023-06-10T04:05:15;22.25;;;16.65;;
68940;SDS011;55982;51.476;7.552;2023-06-10T04:07:41;28.02;;;16.67;;
68940;SDS011;55982;51.476;7.552;2023-06-10T04:10:07;19.65;;;16.00;;
68940;SDS011;55982;51.476;7.552;2023-06-10T04:12:33;28.40;;;19.55;;
68940;SDS011;55982;51.476;7.552;2023-06-10T04:14:59;27.58;;;18.48;;
68940;SDS011;55982;51.476;7.552;2023-06-10T04:17:25;24.45;;;17.77;;
68940;SDS011;55982;51.476;7.552;2023-06-10T04:19:51;25.02;;;18.58;;
68940;SDS011;55982;51.476;7.552;2023-06-10T04:22:17;24.25;;;18.13;;
68940;SDS011;55982;51.476;7.552;2023-06-10T04:24:43;26.35;;;19.52;;
68940;SDS011;55982;51.476;7.552;2023-06-10T04:27:08;26.75;;;17.88;;
68940;SDS011;55982;51.476;7.552;2023-06-10T04:29:33;25.63;;;18.75;;
68940;SDS011;55982;51.476;7.552;2023-06-10T04:31:59;25.40;;;18.50;;
68940;SDS011;55982;51.476;7.552;2023-06-10T04:34:26;24.52;;;17.67;;
68940;SDS011;55982;51.476;7.552;2023-06-10T04:36:52;24.58;;;17.08;;
68940;SDS011;55982;51.476;7.552;2023-06-10T04:39:17;24.80;;;17.52;;
68940;SDS011;55982;51.476;7.552;2023-06-10T04:41:43;26.58;;;18.30;;
68940;SDS011;55982;51.476;7.552;2023-06-10T04:44:09;22.63;;;16.88;;
68940;SDS011;55982;51.476;7.552;2023-06-10T04:46:35;24.02;;;16.35;;
68940;SDS011;55982;51.476;7.552;2023-06-10T04:49:01;22.08;;;15.40;;
68940;SDS011;55982;51.476;7.552;2023-06-10T04:51:26;20.92;;;15.38;;
68940;SDS011;55982;51.476;7.552;2023-06-10T04:53:51;19.80;;;14.77;;
68940;SDS011;55982;51.476;7.552;2023-06-10T04:56:17;22.40;;;15.60;;
68940;SDS011;55982;51.476;7.552;2023-06-10T04:58:42;21.73;;;14.95;;
68940;SDS011;55982;51.476;7.552;2023-06-10T05:01:08;20.02;;;14.70;;
68940;SDS011;55982;51.476;7.552;2023-06-10T05:03:33;18.27;;;14.23;;
68940;SDS011;55982;51.476;7.552;2023-06-10T05:05:58;19.98;;;14.65;;
68940;SDS011;55982;51.476;7.552;2023-06-10T05:08:23;21.95;;;14.35;;
68940;SDS011;55982;51.476;7.552;2023-06-10T05:10:49;19.70;;;14.13;;
68940;SDS011;55982;51.476;7.552;2023-06-10T05:13:16;21.40;;;13.70;;
68940;SDS011;55982;51.476;7.552;2023-06-10T05:15:41;21.05;;;13.48;;
68940;SDS011;55982;51.476;7.552;2023-06-10T05:18:09;20.73;;;13.75;;
68940;SDS011;55982;51.476;7.552;2023-06-10T05:20:35;17.55;;;12.88;;
68940;SDS011;55982;51.476;7.552;2023-06-10T05:23:00;23.25;;;13.65;;
68940;SDS011;55982;51.476;7.552;2023-06-10T05:25:26;21.13;;;13.45;;
68940;SDS011;55982;51.476;7.552;2023-06-10T05:27:52;19.75;;;13.50;;
68940;SDS011;55982;51.476;7.552;2023-06-10T05:30:17;20.63;;;12.77;;
68940;SDS011;55982;51.476;7.552;2023-06-10T05:32:43;16.65;;;12.45;;
68940;SDS011;55982;51.476;7.552;2023-06-10T05:35:09;16.67;;;13.05;;
68940;SDS011;55982;51.476;7.552;2023-06-10T05:37:34;15.60;;;11.93;;
68940;SDS011;55982;51.476;7.552;2023-06-10T05:40:02;15.77;;;11.13;;
68940;SDS011;55982;51.476;7.552;2023-06-10T05:42:29;15.35;;;11.13;;
68940;SDS011;55982;51.476;7.552;2023-06-10T05:44:54;16.20;;;11.25;;
68940;SDS011;55982;51.476;7.552;2023-06-10T05:47:20;18.45;;;10.90;;
68940;SDS011;55982;51.476;7.552;2023-06-10T05:49:45;14.40;;;10.32;;
68940;SDS011;55982;51.476;7.552;2023-06-10T05:52:13;14.63;;;10.15;;
68940;SDS011;55982;51.476;7.552;2023-06-10T05:54:38;16.95;;;10.60;;
68940;SDS011;55982;51.476;7.552;2023-06-10T05:57:03;14.10;;;9.95;;
68940;SDS011;55982;51.476;7.552;2023-06-10T05:59:30;12.68;;;9.30;;
68940;SDS011;55982;51.476;7.552;2023-06-10T06:01:56;12.63;;;9.00;;
68940;SDS011;55982;51.476;7.552;2023-06-10T06:04:22;10.88;;;8.80;;
68940;SDS011;55982;51.476;7.552;2023-06-10T06:06:47;10.52;;;8.57;;
68940;SDS011;55982;51.476;7.552;2023-06-10T06:09:12;15.02;;;8.45;;
68940;SDS011;55982;51.476;7.552;2023-06-10T06:11:38;8.82;;;7.93;;
68940;SDS011;55982;51.476;7.552;2023-06-10T06:14:03;11.90;;;8.18;;
68940;SDS011;55982;51.476;7.552;2023-06-10T06:16:29;12.95;;;7.90;;
68940;SDS011;55982;51.476;7.552;2023-06-10T06:18:54;9.57;;;7.75;;
68940;SDS011;55982;51.476;7.552;2023-06-10T06:21:19;12.48;;;7.43;;
68940;SDS011;55982;51.476;7.552;2023-06-10T06:23:45;12.30;;;7.55;;
68940;SDS011;55982;51.476;7.552;2023-06-10T06:26:10;12.30;;;7.38;;
68940;SDS011;55982;51.476;7.552;2023-06-10T06:28:35;12.23;;;7.30;;
68940;SDS011;55982;51.476;7.552;2023-06-10T06:31:01;12.68;;;8.05;;
68940;SDS011;55982;51.476;7.552;2023-06-10T06:33:26;11.65;;;6.60;;
68940;SDS011;55982;51.476;7.552;2023-06-10T06:35:52;10.82;;;7.10;;
68940;SDS011;55982;51.476;7.552;2023-06-10T06:38:17;11.48;;;6.85;;
68940;SDS011;55982;51.476;7.552;2023-06-10T06:40:42;12.48;;;7.25;;
68940;SDS011;55982;51.476;7.552;2023-06-10T06:43:08;10.20;;;6.82;;
68940;SDS011;55982;51.476;7.552;2023-06-10T06:45:33;9.50;;;6.50;;
68940;SDS011;55982;51.476;7.552;2023-06-10T06:47:59;10.82;;;7.63;;
68940;SDS011;55982;51.476;7.552;2023-06-10T06:50:24;9.18;;;6.32;;
68940;SDS011;55982;51.476;7.552;2023-06-10T06:52:50;10.95;;;6.82;;
68940;SDS011;55982;51.476;7.552;2023-06-10T06:55:15;8.68;;;6.97;;
68940;SDS011;55982;51.476;7.552;2023-06-10T06:57:40;8.40;;;6.50;;
68940;SDS011;55982;51.476;7.552;2023-06-10T07:00:06;12.23;;;6.88;;
68940;SDS011;55982;51.476;7.552;2023-06-10T07:02:33;8.63;;;6.70;;
68940;SDS011;55982;51.476;7.552;2023-06-10T07:04:58;10.35;;;6.82;;
68940;SDS011;55982;51.476;7.552;2023-06-10T07:07:24;8.57;;;6.82;;
68940;SDS011;55982;51.476;7.552;2023-06-10T07:09:49;7.85;;;6.32;;
68940;SDS011;55982;51.476;7.552;2023-06-10T07:12:15;10.20;;;6.57;;
68940;SDS011;55982;51.476;7.552;2023-06-10T07:14:40;9.43;;;6.40;;
68940;SDS011;55982;51.476;7.552;2023-06-10T07:17:06;10.30;;;5.75;;
68940;SDS011;55982;51.476;7.552;2023-06-10T07:19:31;9.60;;;6.57;;
68940;SDS011;55982;51.476;7.552;2023-06-10T07:21:57;8.05;;;6.20;;
68940;SDS011;55982;51.476;7.552;2023-06-10T07:24:22;7.40;;;5.93;;
68940;SDS011;55982;51.476;7.552;2023-06-10T07:26:47;7.53;;;5.78;;
68940;SDS011;55982;51.476;7.552;2023-06-10T07:29:12;7.93;;;5.70;;
68940;SDS011;55982;51.476;7.552;2023-06-10T07:31:38;9.30;;;6.03;;
68940;SDS011;55982;51.476;7.552;2023-06-10T07:34:03;7.85;;;5.78;;
68940;SDS011;55982;51.476;7.552;2023-06-10T07:36:28;6.63;;;5.45;;
68940;SDS011;55982;51.476;7.552;2023-06-10T07:38:54;8.80;;;6.35;;
68940;SDS011;55982;51.476;7.552;2023-06-10T07:41:20;8.23;;;5.80;;
68940;SDS011;55982;51.476;7.552;2023-06-10T07:43:47;13.65;;;5.88;;
68940;SDS011;55982;51.476;7.552;2023-06-10T07:46:12;7.65;;;5.78;;
68940;SDS011;55982;51.476;7.552;2023-06-10T07:48:38;7.22;;;5.45;;
68940;SDS011;55982;51.476;7.552;2023-06-10T07:51:03;8.23;;;5.60;;
68940;SDS011;55982;51.476;7.552;2023-06-10T07:53:29;7.50;;;6.05;;
68940;SDS011;55982;51.476;7.552;2023-06-10T07:55:54;9.13;;;6.20;;
68940;SDS011;55982;51.476;7.552;2023-06-10T07:58:20;8.93;;;6.13;;
68940;SDS011;55982;51.476;7.552;2023-06-10T08:00:46;10.15;;;6.32;;
68940;SDS011;55982;51.476;7.552;2023-06-10T08:03:11;7.22;;;5.30;;
68940;SDS011;55982;51.476;7.552;2023-06-10T08:05:37;8.45;;;6.13;;
68940;SDS011;55982;51.476;7.552;2023-06-10T08:08:04;7.78;;;5.18;;
68940;SDS011;55982;51.476;7.552;2023-06-10T08:10:30;8.40;;;6.00;;
68940;SDS011;55982;51.476;7.552;2023-06-10T08:12:55;7.20;;;5.35;;
68940;SDS011;55982;51.476;7.552;2023-06-10T08:15:21;6.53;;;5.68;;
68940;SDS011;55982;51.476;7.552;2023-06-10T08:17:46;10.68;;;5.78;;
68940;SDS011;55982;51.476;7.552;2023-06-10T08:20:11;9.45;;;5.68;;
68940;SDS011;55982;51.476;7.552;2023-06-10T08:22:37;6.50;;;5.22;;
68940;SDS011;55982;51.476;7.552;2023-06-10T08:25:05;7.70;;;5.72;;
68940;SDS011;55982;51.476;7.552;2023-06-10T08:27:31;8.65;;;5.60;;
68940;SDS011;55982;51.476;7.552;2023-06-10T08:29:56;8.93;;;5.50;;
68940;SDS011;55982;51.476;7.552;2023-06-10T08:32:21;9.50;;;5.68;;
68940;SDS011;55982;51.476;7.552;2023-06-10T08:34:47;10.13;;;5.55;;
68940;SDS011;55982;51.476;7.552;2023-06-10T08:37:12;6.38;;;5.75;;
68940;SDS011;55982;51.476;7.552;2023-06-10T08:39:37;10.05;;;6.03;;
68940;SDS011;55982;51.476;7.552;2023-06-10T08:45:03;9.85;;;5.30;;
68940;SDS011;55982;51.476;7.552;2023-06-10T08:47:31;6.65;;;5.25;;
68940;SDS011;55982;51.476;7.552;2023-06-10T08:50:03;8.23;;;5.10;;
68940;SDS011;55982;51.476;7.552;2023-06-10T08:52:29;8.07;;;5.47;;
68940;SDS011;55982;51.476;7.552;2023-06-10T08:55:03;8.32;;;5.30;;
68940;SDS011;55982;51.476;7.552;2023-06-10T08:57:30;7.25;;;5.43;;
68940;SDS011;55982;51.476;7.552;2023-06-10T08:59:56;9.38;;;5.63;;
68940;SDS011;55982;51.476;7.552;2023-06-10T09:02:23;6.30;;;4.75;;
68940;SDS011;55982;51.476;7.552;2023-06-10T09:04:50;8.40;;;5.30;;
68940;SDS011;55982;51.476;7.552;2023-06-10T09:07:15;7.28;;;5.18;;
68940;SDS011;55982;51.476;7.552;2023-06-10T09:09:44;10.50;;;4.70;;
68940;SDS011;55982;51.476;7.552;2023-06-10T09:12:10;8.00;;;5.45;;
68940;SDS011;55982;51.476;7.552;2023-06-10T09:14:38;6.90;;;4.88;;
68940;SDS011;55982;51.476;7.552;2023-06-10T09:17:03;5.90;;;4.97;;
68940;SDS011;55982;51.476;7.552;2023-06-10T09:19:30;8.52;;;5.38;;
68940;SDS011;55982;51.476;7.552;2023-06-10T09:21:56;8.20;;;5.07;;
68940;SDS011;55982;51.476;7.552;2023-06-10T09:24:22;10.82;;;5.50;;
68940;SDS011;55982;51.476;7.552;2023-06-10T09:26:48;6.43;;;4.70;;
68940;SDS011;55982;51.476;7.552;2023-06-10T09:29:13;8.98;;;5.15;;
68940;SDS011;55982;51.476;7.552;2023-06-10T09:31:39;7.95;;;4.53;;
68940;SDS011;55982;51.476;7.552;2023-06-10T09:34:06;8.80;;;5.50;;
68940;SDS011;55982;51.476;7.552;2023-06-10T09:36:33;11.40;;;5.50;;
68940;SDS011;55982;51.476;7.552;2023-06-10T09:39:00;7.97;;;4.97;;
68940;SDS011;55982;51.476;7.552;2023-06-10T09:41:32;6.05;;;5.05;;
68940;SDS011;55982;51.476;7.552;2023-06-10T09:44:08;7.43;;;5.10;;
68940;SDS011;55982;51.476;7.552;2023-06-10T09:46:36;6.10;;;5.32;;
68940;SDS011;55982;51.476;7.552;2023-06-10T09:49:02;6.95;;;5.70;;
68940;SDS011;55982;51.476;7.552;2023-06-10T09:51:27;6.07;;;5.30;;
68940;SDS011;55982;51.476;7.552;2023-06-10T09:53:52;6.88;;;5.50;;
68940;SDS011;55982;51.476;7.552;2023-06-10T09:56:18;8.07;;;5.32;;
68940;SDS011;55982;51.476;7.552;2023-06-10T09:58:44;6.70;;;5.50;;
68940;SDS011;55982;51.476;7.552;2023-06-10T10:01:12;6.38;;;5.00;;
68940;SDS011;55982;51.476;7.552;2023-06-10T10:06:11;6.13;;;4.80;;
68940;SDS011;55982;51.476;7.552;2023-06-10T10:08:37;6.97;;;5.07;;
68940;SDS011;55982;51.476;7.552;2023-06-10T10:11:03;7.15;;;5.03;;
68940;SDS011;55982;51.476;7.552;2023-06-10T10:13:28;6.85;;;5.00;;
68940;SDS011;55982;51.476;7.552;2023-06-10T10:15:56;9.32;;;5.03;;
68940;SDS011;55982;51.476;7.552;2023-06-10T10:18:26;7.10;;;4.95;;
68940;SDS011;55982;51.476;7.552;2023-06-10T10:20:55;7.05;;;5.25;;
68940;SDS011;55982;51.476;7.552;2023-06-10T10:23:26;8.77;;;5.57;;
68940;SDS011;55982;51.476;7.552;2023-06-10T10:25:57;7.32;;;5.78;;
68940;SDS011;55982;51.476;7.552;2023-06-10T10:28:29;8.80;;;5.38;;
68940;SDS011;55982;51.476;7.552;2023-06-10T10:31:10;9.88;;;5.85;;
68940;SDS011;55982;51.476;7.552;2023-06-10T10:33:45;9.15;;;5.68;;
68940;SDS011;55982;51.476;7.552;2023-06-10T10:36:19;7.07;;;5.63;;
68940;SDS011;55982;51.476;7.552;2023-06-10T10:38:45;9.63;;;5.97;;
68940;SDS011;55982;51.476;7.552;2023-06-10T10:41:13;6.10;;;5.13;;
68940;SDS011;55982;51.476;7.552;2023-06-10T10:43:39;9.10;;;5.32;;
68940;SDS011;55982;51.476;7.552;2023-06-10T10:46:09;11.18;;;5.57;;
68940;SDS011;55982;51.476;7.552;2023-06-10T10:48:41;7.00;;;5.85;;
68940;SDS011;55982;51.476;7.552;2023-06-10T10:51:08;8.18;;;5.25;;
68940;SDS011;55982;51.476;7.552;2023-06-10T10:53:39;10.60;;;5.47;;
68940;SDS011;55982;51.476;7.552;2023-06-10T10:56:05;5.68;;;5.15;;
68940;SDS011;55982;51.476;7.552;2023-06-10T10:58:33;6.75;;;5.25;;
68940;SDS011;55982;51.476;7.552;2023-06-10T11:00:58;6.10;;;5.40;;
68940;SDS011;55982;51.476;7.552;2023-06-10T11:03:27;10.27;;;5.90;;
68940;SDS011;55982;51.476;7.552;2023-06-10T11:05:56;9.85;;;5.90;;
68940;SDS011;55982;51.476;7.552;2023-06-10T11:10:57;7.65;;;5.68;;
68940;SDS011;55982;51.476;7.552;2023-06-10T11:13:22;7.00;;;5.32;;
68940;SDS011;55982;51.476;7.552;2023-06-10T11:15:48;6.45;;;5.85;;
68940;SDS011;55982;51.476;7.552;2023-06-10T11:18:24;7.85;;;5.32;;
68940;SDS011;55982;51.476;7.552;2023-06-10T11:20:52;8.68;;;5.68;;
68940;SDS011;55982;51.476;7.552;2023-06-10T11:23:25;7.60;;;5.20;;
68940;SDS011;55982;51.476;7.552;2023-06-10T11:33:54;8.07;;;5.38;;
68940;SDS011;55982;51.476;7.552;2023-06-10T11:36:21;10.52;;;5.53;;
68940;SDS011;55982;51.476;7.552;2023-06-10T11:38:46;11.50;;;6.03;;
68940;SDS011;55982;51.476;7.552;2023-06-10T11:41:16;8.13;;;5.13;;
68940;SDS011;55982;51.476;7.552;2023-06-10T11:43:45;7.15;;;5.55;;
68940;SDS011;55982;51.476;7.552;2023-06-10T11:46:12;6.28;;;5.68;;
68940;SDS011;55982;51.476;7.552;2023-06-10T11:48:37;8.43;;;5.60;;
68940;SDS011;55982;51.476;7.552;2023-06-10T11:51:06;8.07;;;5.35;;
68940;SDS011;55982;51.476;7.552;2023-06-10T11:53:32;11.95;;;5.75;;
68940;SDS011;55982;51.476;7.552;2023-06-10T11:55:58;8.32;;;5.63;;
68940;SDS011;55982;51.476;7.552;2023-06-10T11:58:24;15.55;;;6.60;;
68940;SDS011;55982;51.476;7.552;2023-06-10T12:00:50;9.57;;;6.20;;
68940;SDS011;55982;51.476;7.552;2023-06-10T12:03:18;7.25;;;5.30;;
68940;SDS011;55982;51.476;7.552;2023-06-10T12:06:00;6.55;;;5.35;;
68940;SDS011;55982;51.476;7.552;2023-06-10T12:08:30;6.03;;;5.53;;
68940;SDS011;55982;51.476;7.552;2023-06-10T12:10:56;7.65;;;5.97;;
68940;SDS011;55982;51.476;7.552;2023-06-10T12:13:22;8.35;;;5.18;;
68940;SDS011;55982;51.476;7.552;2023-06-10T12:15:49;6.38;;;5.45;;
68940;SDS011;55982;51.476;7.552;2023-06-10T12:18:21;6.60;;;6.00;;
68940;SDS011;55982;51.476;7.552;2023-06-10T12:20:48;8.55;;;6.03;;
68940;SDS011;55982;51.476;7.552;2023-06-10T12:23:14;12.30;;;5.97;;
68940;SDS011;55982;51.476;7.552;2023-06-10T12:25:49;7.32;;;5.85;;
68940;SDS011;55982;51.476;7.552;2023-06-10T12:28:16;6.95;;;6.10;;
68940;SDS011;55982;51.476;7.552;2023-06-10T12:30:44;11.20;;;5.90;;
68940;SDS011;55982;51.476;7.552;2023-06-10T12:33:16;6.28;;;5.68;;
68940;SDS011;55982;51.476;7.552;2023-06-10T12:35:51;10.30;;;5.90;;
68940;SDS011;55982;51.476;7.552;2023-06-10T12:38:24;6.95;;;6.03;;
68940;SDS011;55982;51.476;7.552;2023-06-10T12:40:53;7.63;;;5.80;;
68940;SDS011;55982;51.476;7.552;2023-06-10T12:43:19;6.03;;;5.45;;
68940;SDS011;55982;51.476;7.552;2023-06-10T12:45:46;6.65;;;5.50;;
68940;SDS011;55982;51.476;7.552;2023-06-10T12:48:21;5.82;;;5.30;;
68940;SDS011;55982;51.476;7.552;2023-06-10T12:50:54;7.60;;;6.00;;
68940;SDS011;55982;51.476;7.552;2023-06-10T12:53:21;6.60;;;5.95;;
68940;SDS011;55982;51.476;7.552;2023-06-10T12:55:56;6.03;;;5.40;;
68940;SDS011;55982;51.476;7.552;2023-06-10T12:58:22;6.10;;;5.13;;
68940;SDS011;55982;51.476;7.552;2023-06-10T13:00:48;10.93;;;6.35;;
68940;SDS011;55982;51.476;7.552;2023-06-10T13:03:14;7.18;;;6.13;;
68940;SDS011;55982;51.476;7.552;2023-06-10T13:05:39;9.93;;;5.95;;
68940;SDS011;55982;51.476;7.552;2023-06-10T13:08:05;8.05;;;5.95;;
68940;SDS011;55982;51.476;7.552;2023-06-10T13:10:32;6.95;;;5.60;;
68940;SDS011;55982;51.476;7.552;2023-06-10T13:12:59;6.80;;;5.88;;
68940;SDS011;55982;51.476;7.552;2023-06-10T13:15:25;7.70;;;5.82;;
68940;SDS011;55982;51.476;7.552;2023-06-10T13:17:51;7.68;;;5.68;;
68940;SDS011;55982;51.476;7.552;2023-06-10T13:20:17;7.03;;;5.35;;
68940;SDS011;55982;51.476;7.552;2023-06-10T13:22:43;6.10;;;5.30;;
68940;SDS011;55982;51.476;7.552;2023-06-10T13:25:08;7.82;;;6.32;;
68940;SDS011;55982;51.476;7.552;2023-06-10T13:27:34;8.65;;;5.70;;
68940;SDS011;55982;51.476;7.552;2023-06-10T13:30:03;8.90;;;6.18;;
68940;SDS011;55982;51.476;7.552;2023-06-10T13:32:29;10.75;;;5.80;;
68940;SDS011;55982;51.476;7.552;2023-06-10T13:34:54;12.38;;;5.95;;
68940;SDS011;55982;51.476;7.552;2023-06-10T13:37:20;7.05;;;6.05;;
68940;SDS011;55982;51.476;7.552;2023-06-10T13:39:45;7.50;;;6.15;;
68940;SDS011;55982;51.476;7.552;2023-06-10T13:42:15;9.10;;;5.75;;
68940;SDS011;55982;51.476;7.552;2023-06-10T13:44:44;6.93;;;5.88;;
68940;SDS011;55982;51.476;7.552;2023-06-10T13:47:10;9.77;;;6.13;;
68940;SDS011;55982;51.476;7.552;2023-06-10T13:49:35;6.78;;;6.07;;
68940;SDS011;55982;51.476;7.552;2023-06-10T13:52:01;7.90;;;6.00;;
68940;SDS011;55982;51.476;7.552;2023-06-10T13:54:27;6.75;;;6.05;;
68940;SDS011;55982;51.476;7.552;2023-06-10T13:56:52;6.07;;;5.47;;
68940;SDS011;55982;51.476;7.552;2023-06-10T13:59:18;6.70;;;5.65;;
68940;SDS011;55982;51.476;7.552;2023-06-10T14:01:44;6.55;;;5.90;;
68940;SDS011;55982;51.476;7.552;2023-06-10T14:04:10;5.82;;;5.30;;
68940;SDS011;55982;51.476;7.552;2023-06-10T14:06:35;9.02;;;5.80;;
68940;SDS011;55982;51.476;7.552;2023-06-10T14:09:00;6.10;;;5.50;;
68940;SDS011;55982;51.476;7.552;2023-06-10T14:11:26;6.57;;;5.72;;
68940;SDS011;55982;51.476;7.552;2023-06-10T14:13:52;6.15;;;5.22;;
68940;SDS011;55982;51.476;7.552;2023-06-10T14:16:18;7.65;;;5.70;;
68940;SDS011;55982;51.476;7.552;2023-06-10T14:18:43;8.05;;;5.78;;
68940;SDS011;55982;51.476;7.552;2023-06-10T14:21:08;6.28;;;5.22;;
68940;SDS011;55982;51.476;7.552;2023-06-10T14:23:34;7.30;;;5.85;;
68940;SDS011;55982;51.476;7.552;2023-06-10T14:26:00;10.98;;;6.45;;
68940;SDS011;55982;51.476;7.552;2023-06-10T14:28:26;6.43;;;5.60;;
68940;SDS011;55982;51.476;7.552;2023-06-10T14:30:52;5.93;;;5.32;;
68940;SDS011;55982;51.476;7.552;2023-06-10T14:33:18;7.38;;;5.53;;
68940;SDS011;55982;51.476;7.552;2023-06-10T14:35:43;6.60;;;5.85;;
68940;SDS011;55982;51.476;7.552;2023-06-10T14:38:09;6.38;;;5.60;;
68940;SDS011;55982;51.476;7.552;2023-06-10T14:40:34;10.35;;;6.10;;
68940;SDS011;55982;51.476;7.552;2023-06-10T14:43:00;11.85;;;6.15;;
68940;SDS011;55982;51.476;7.552;2023-06-10T14:45:26;7.45;;;5.68;;
68940;SDS011;55982;51.476;7.552;2023-06-10T14:47:51;6.78;;;6.03;;